sensor_id;sensor_type;location;lat;lon;timestamp;pressure;altitude;pressure_sealevel;temperature;humidity
7433;BME280;32233;49.500;7.764;2023-04-09T00:01:29;99211.50;;;5.18;98.37
7433;BME280;32233;49.500;7.764;2023-04-09T00:03:55;99203.88;;;5.07;100.00
7433;BME280;32233;49.500;7.764;2023-04-09T00:06:22;99205.69;;;4.96;100.00
7433;BME280;32233;49.500;7.764;2023-04-09T00:08:48;99202.63;;;5.01;100.00
7433;BME280;32233;49.500;7.764;2023-04-09T00:11:15;99206.75;;;4.86;100.00
7433;BME280;32233;49.500;7.764;2023-04-09T00:13:42;99198.09;;;4.76;100.00
7433;BME280;32233;49.500;7.764;2023-04-09T00:16:08;99207.03;;;4.83;100.00
7433;BME280;32233;49.500;7.764;2023-04-09T00:18:35;99211.38;;;4.92;100.00
7433;BME280;32233;49.500;7.764;2023-04-09T00:21:01;99207.22;;;4.99;100.00
7433;BME280;32233;49.500;7.764;2023-04-09T00:23:28;99205.88;;;4.95;100.00
7433;BME280;32233;49.500;7.764;2023-04-09T00:25:54;99199.72;;;4.86;100.00
7433;BME280;32233;49.500;7.764;2023-04-09T00:28:21;99202.63;;;4.83;100.00
7433;BME280;32233;49.500;7.764;2023-04-09T00:30:47;99194.81;;;4.74;100.00
7433;BME280;32233;49.500;7.764;2023-04-09T00:33:14;99198.09;;;4.76;100.00
7433;BME280;32233;49.500;7.764;2023-04-09T00:35:40;99199.00;;;4.84;100.00
7433;BME280;32233;49.500;7.764;2023-04-09T00:38:07;99201.34;;;4.87;100.00
7433;BME280;32233;49.500;7.764;2023-04-09T00:40:33;99196.59;;;4.73;100.00
7433;BME280;32233;49.500;7.764;2023-04-09T00:43:00;99204.75;;;4.70;100.00
7433;BME280;32233;49.500;7.764;2023-04-09T00:45:27;99201.06;;;4.90;100.00
7433;BME280;32233;49.500;7.764;2023-04-09T00:47:54;99200.63;;;5.13;100.00
7433;BME280;32233;49.500;7.764;2023-04-09T00:50:21;99197.56;;;5.17;100.00
7433;BME280;32233;49.500;7.764;2023-04-09T00:52:48;99201.00;;;5.18;100.00
7433;BME280;32233;49.500;7.764;2023-04-09T00:55:14;99193.38;;;5.07;100.00
7433;BME280;32233;49.500;7.764;2023-04-09T00:57:41;99199.06;;;5.02;100.00
7433;BME280;32233;49.500;7.764;2023-04-09T01:00:09;99202.09;;;4.97;100.00
7433;BME280;32233;49.500;7.764;2023-04-09T01:02:36;99196.47;;;5.20;100.00
7433;BME280;32233;49.500;7.764;2023-04-09T01:05:04;99199.78;;;5.40;99.06
7433;BME280;32233;49.500;7.764;2023-04-09T01:12:59;99199.53;;;5.15;100.00
7433;BME280;32233;49.500;7.764;2023-04-09T01:15:30;99198.19;;;5.29;99.27
7433;BME280;32233;49.500;7.764;2023-04-09T01:18:35;99201.03;;;5.36;97.29
7433;BME280;32233;49.500;7.764;2023-04-09T01:21:18;99199.38;;;5.17;98.55
7433;BME280;32233;49.500;7.764;2023-04-09T01:24:01;99203.53;;;5.10;99.02
7433;BME280;32233;49.500;7.764;2023-04-09T01:29:55;99197.66;;;5.08;97.59
7433;BME280;32233;49.500;7.764;2023-04-09T01:32:23;99193.69;;;5.21;98.52
7433;BME280;32233;49.500;7.764;2023-04-09T01:34:51;99204.69;;;5.25;97.47
7433;BME280;32233;49.500;7.764;2023-04-09T01:37:19;99201.63;;;5.12;96.53
7433;BME280;32233;49.500;7.764;2023-04-09T01:39:46;99199.25;;;5.18;96.94
7433;BME280;32233;49.500;7.764;2023-04-09T01:42:14;99203.78;;;5.16;97.71
7433;BME280;32233;49.500;7.764;2023-04-09T01:44:41;99202.53;;;5.38;96.45
7433;BME280;32233;49.500;7.764;2023-04-09T01:47:09;99203.22;;;5.40;95.23
7433;BME280;32233;49.500;7.764;2023-04-09T01:49:37;99203.81;;;5.52;95.00
7433;BME280;32233;49.500;7.764;2023-04-09T01:52:05;99204.41;;;5.46;94.67
7433;BME280;32233;49.500;7.764;2023-04-09T01:54:32;99210.53;;;5.37;94.71
7433;BME280;32233;49.500;7.764;2023-04-09T01:56:59;99202.97;;;5.16;95.45
7433;BME280;32233;49.500;7.764;2023-04-09T01:59:26;99200.59;;;5.22;96.36
7433;BME280;32233;49.500;7.764;2023-04-09T02:02:00;99201.94;;;5.27;95.08
7433;BME280;32233;49.500;7.764;2023-04-09T02:04:54;99197.28;;;5.38;95.12
7433;BME280;32233;49.500;7.764;2023-04-09T02:07:36;99200.13;;;5.27;94.03
7433;BME280;32233;49.500;7.764;2023-04-09T02:10:05;99209.13;;;5.25;93.21
7433;BME280;32233;49.500;7.764;2023-04-09T02:12:36;99196.47;;;5.38;93.70
7433;BME280;32233;49.500;7.764;2023-04-09T02:15:04;99195.63;;;5.37;95.63
7433;BME280;32233;49.500;7.764;2023-04-09T02:17:32;99204.25;;;5.12;93.44
7433;BME280;32233;49.500;7.764;2023-04-09T02:19:59;99204.00;;;5.05;95.15
7433;BME280;32233;49.500;7.764;2023-04-09T02:22:25;99201.47;;;5.13;94.01
7433;BME280;32233;49.500;7.764;2023-04-09T02:24:52;99200.34;;;5.16;94.94
7433;BME280;32233;49.500;7.764;2023-04-09T02:27:18;99205.16;;;5.20;94.24
7433;BME280;32233;49.500;7.764;2023-04-09T02:29:45;99201.47;;;5.13;94.67
7433;BME280;32233;49.500;7.764;2023-04-09T02:32:11;99201.44;;;4.95;95.14
7433;BME280;32233;49.500;7.764;2023-04-09T02:34:38;99202.41;;;4.94;96.23
7433;BME280;32233;49.500;7.764;2023-04-09T02:37:04;99204.06;;;4.95;95.94
7433;BME280;32233;49.500;7.764;2023-04-09T02:39:31;99204.63;;;4.89;95.66
7433;BME280;32233;49.500;7.764;2023-04-09T02:41:58;99207.56;;;4.86;94.96
7433;BME280;32233;49.500;7.764;2023-04-09T02:44:25;99201.34;;;4.87;95.28
7433;BME280;32233;49.500;7.764;2023-04-09T02:46:52;99202.00;;;4.89;95.93
7433;BME280;32233;49.500;7.764;2023-04-09T02:49:19;99198.88;;;4.86;95.00
7433;BME280;32233;49.500;7.764;2023-04-09T02:51:45;99204.78;;;4.88;94.86
7433;BME280;32233;49.500;7.764;2023-04-09T02:54:12;99207.66;;;4.94;96.41
7433;BME280;32233;49.500;7.764;2023-04-09T02:56:39;99202.19;;;5.06;95.17
7433;BME280;32233;49.500;7.764;2023-04-09T02:59:05;99205.56;;;4.98;94.24
7433;BME280;32233;49.500;7.764;2023-04-09T03:01:32;99198.13;;;4.93;94.90
7433;BME280;32233;49.500;7.764;2023-04-09T03:03:59;99201.44;;;4.95;93.24
7433;BME280;32233;49.500;7.764;2023-04-09T03:06:26;99207.59;;;5.22;92.67
7433;BME280;32233;49.500;7.764;2023-04-09T03:08:53;99196.91;;;5.15;93.07
7433;BME280;32233;49.500;7.764;2023-04-09T03:11:20;99191.50;;;4.99;94.04
7433;BME280;32233;49.500;7.764;2023-04-09T03:13:46;99189.88;;;4.88;94.90
7433;BME280;32233;49.500;7.764;2023-04-09T03:16:13;99191.13;;;4.94;94.63
7433;BME280;32233;49.500;7.764;2023-04-09T03:18:39;99189.34;;;4.85;95.31
7433;BME280;32233;49.500;7.764;2023-04-09T03:21:06;99180.47;;;4.95;93.55
7433;BME280;32233;49.500;7.764;2023-04-09T03:23:36;99178.50;;;4.80;95.01
7433;BME280;32233;49.500;7.764;2023-04-09T03:26:05;99180.38;;;4.87;94.09
7433;BME280;32233;49.500;7.764;2023-04-09T03:28:39;99178.75;;;4.86;93.19
7433;BME280;32233;49.500;7.764;2023-04-09T03:31:05;99177.78;;;4.87;94.52
7433;BME280;32233;49.500;7.764;2023-04-09T03:33:35;99176.03;;;4.78;95.35
7433;BME280;32233;49.500;7.764;2023-04-09T03:36:02;99174.16;;;4.70;95.34
7433;BME280;32233;49.500;7.764;2023-04-09T03:38:39;99170.56;;;4.71;96.11
7433;BME280;32233;49.500;7.764;2023-04-09T03:41:13;99169.94;;;5.05;94.68
7433;BME280;32233;49.500;7.764;2023-04-09T03:43:40;99174.97;;;4.99;95.08
7433;BME280;32233;49.500;7.764;2023-04-09T03:46:16;99174.78;;;4.82;95.58
7433;BME280;32233;49.500;7.764;2023-04-09T03:48:45;99170.19;;;4.84;94.49
7433;BME280;32233;49.500;7.764;2023-04-09T03:51:16;99171.19;;;4.83;97.03
7433;BME280;32233;49.500;7.764;2023-04-09T03:53:48;99170.97;;;4.94;96.38
7433;BME280;32233;49.500;7.764;2023-04-09T03:56:15;99167.00;;;4.90;95.83
7433;BME280;32233;49.500;7.764;2023-04-09T03:58:42;99166.41;;;4.69;97.51
7433;BME280;32233;49.500;7.764;2023-04-09T04:01:11;99166.22;;;4.53;97.65
7433;BME280;32233;49.500;7.764;2023-04-09T04:03:48;99167.41;;;4.68;97.86
7433;BME280;32233;49.500;7.764;2023-04-09T04:06:21;99165.16;;;4.73;97.61
7433;BME280;32233;49.500;7.764;2023-04-09T04:09:08;99164.34;;;4.45;96.78
7433;BME280;32233;49.500;7.764;2023-04-09T04:11:42;99165.72;;;4.49;98.90
7433;BME280;32233;49.500;7.764;2023-04-09T04:14:09;99163.81;;;4.41;98.18
7433;BME280;32233;49.500;7.764;2023-04-09T04:16:39;99167.06;;;4.16;100.00
7433;BME280;32233;49.500;7.764;2023-04-09T04:19:06;99161.59;;;4.00;100.00
7433;BME280;32233;49.500;7.764;2023-04-09T04:21:40;99166.69;;;4.01;100.00
7433;BME280;32233;49.500;7.764;2023-04-09T04:24:07;99168.94;;;3.86;100.00
7433;BME280;32233;49.500;7.764;2023-04-09T04:26:34;99168.78;;;3.97;100.00
7433;BME280;32233;49.500;7.764;2023-04-09T04:29:00;99172.78;;;3.82;100.00
7433;BME280;32233;49.500;7.764;2023-04-09T04:31:44;99167.31;;;3.66;100.00
7433;BME280;32233;49.500;7.764;2023-04-09T04:34:13;99175.56;;;3.71;100.00
7433;BME280;32233;49.500;7.764;2023-04-09T04:36:43;99168.84;;;3.68;100.00
7433;BME280;32233;49.500;7.764;2023-04-09T04:39:09;99174.72;;;3.70;100.00
7433;BME280;32233;49.500;7.764;2023-04-09T04:41:48;99179.97;;;3.41;100.00
7433;BME280;32233;49.500;7.764;2023-04-09T04:44:19;99172.00;;;3.33;100.00
7433;BME280;32233;49.500;7.764;2023-04-09T04:46:50;99175.47;;;3.43;100.00
7433;BME280;32233;49.500;7.764;2023-04-09T04:49:16;99177.38;;;3.41;100.00
7433;BME280;32233;49.500;7.764;2023-04-09T04:51:46;99176.00;;;3.47;100.00
7433;BME280;32233;49.500;7.764;2023-04-09T04:54:14;99177.38;;;3.51;100.00
7433;BME280;32233;49.500;7.764;2023-04-09T04:56:48;99179.97;;;3.41;100.00
7433;BME280;32233;49.500;7.764;2023-04-09T04:59:23;99178.47;;;3.48;100.00
7433;BME280;32233;49.500;7.764;2023-04-09T05:02:01;99176.69;;;3.39;100.00
7433;BME280;32233;49.500;7.764;2023-04-09T05:04:35;99185.47;;;3.29;100.00
7433;BME280;32233;49.500;7.764;2023-04-09T05:07:02;99191.78;;;3.26;100.00
7433;BME280;32233;49.500;7.764;2023-04-09T05:09:29;99188.78;;;3.21;100.00
7433;BME280;32233;49.500;7.764;2023-04-09T05:11:59;99192.22;;;3.31;100.00
7433;BME280;32233;49.500;7.764;2023-04-09T05:14:26;99195.81;;;3.40;100.00
7433;BME280;32233;49.500;7.764;2023-04-09T05:16:53;99191.25;;;3.32;100.00
7433;BME280;32233;49.500;7.764;2023-04-09T05:19:24;99190.84;;;3.27;100.00
7433;BME280;32233;49.500;7.764;2023-04-09T05:21:56;99185.50;;;3.48;100.00
7433;BME280;32233;49.500;7.764;2023-04-09T05:24:23;99191.56;;;3.39;100.00
7433;BME280;32233;49.500;7.764;2023-04-09T05:26:49;99201.16;;;3.58;100.00
7433;BME280;32233;49.500;7.764;2023-04-09T05:29:16;99192.94;;;3.43;100.00
7433;BME280;32233;49.500;7.764;2023-04-09T05:31:43;99204.31;;;3.42;100.00
7433;BME280;32233;49.500;7.764;2023-04-09T05:34:19;99198.97;;;3.53;100.00
7433;BME280;32233;49.500;7.764;2023-04-09T05:36:49;99203.25;;;3.35;100.00
7433;BME280;32233;49.500;7.764;2023-04-09T05:39:18;99203.25;;;3.44;100.00
7433;BME280;32233;49.500;7.764;2023-04-09T05:41:45;99207.47;;;3.16;100.00
7433;BME280;32233;49.500;7.764;2023-04-09T05:44:34;99205.56;;;3.28;100.00
7433;BME280;32233;49.500;7.764;2023-04-09T05:47:06;99205.94;;;3.14;100.00
7433;BME280;32233;49.500;7.764;2023-04-09T05:49:40;99208.56;;;3.14;100.00
7433;BME280;32233;49.500;7.764;2023-04-09T05:52:11;99209.56;;;3.22;100.00
7433;BME280;32233;49.500;7.764;2023-04-09T05:54:37;99213.44;;;3.47;100.00
7433;BME280;32233;49.500;7.764;2023-04-09T05:57:07;99206.94;;;3.61;100.00
7433;BME280;32233;49.500;7.764;2023-04-09T05:59:36;99206.72;;;4.58;100.00
7433;BME280;32233;49.500;7.764;2023-04-09T06:02:03;99210.47;;;6.26;95.59
7433;BME280;32233;49.500;7.764;2023-04-09T06:04:31;99203.19;;;7.47;84.16
7433;BME280;32233;49.500;7.764;2023-04-09T06:06:59;99201.38;;;7.88;77.56
7433;BME280;32233;49.500;7.764;2023-04-09T06:09:25;99205.63;;;8.38;75.42
7433;BME280;32233;49.500;7.764;2023-04-09T06:11:55;99200.56;;;7.96;75.86
7433;BME280;32233;49.500;7.764;2023-04-09T06:14:23;99203.59;;;8.49;73.95
7433;BME280;32233;49.500;7.764;2023-04-09T06:16:49;99205.81;;;9.15;70.22
7433;BME280;32233;49.500;7.764;2023-04-09T06:19:16;99201.91;;;9.80;67.19
7433;BME280;32233;49.500;7.764;2023-04-09T06:21:43;99200.69;;;10.06;65.25
7433;BME280;32233;49.500;7.764;2023-04-09T06:24:09;99206.50;;;10.54;63.90
7433;BME280;32233;49.500;7.764;2023-04-09T06:26:36;99203.03;;;10.53;61.44
7433;BME280;32233;49.500;7.764;2023-04-09T06:29:02;99203.53;;;11.08;60.63
7433;BME280;32233;49.500;7.764;2023-04-09T06:31:29;99208.25;;;11.12;60.22
7433;BME280;32233;49.500;7.764;2023-04-09T06:33:56;99212.34;;;10.11;63.90
7433;BME280;32233;49.500;7.764;2023-04-09T06:36:23;99210.94;;;11.77;57.59
7433;BME280;32233;49.500;7.764;2023-04-09T06:38:49;99211.66;;;11.64;58.06
7433;BME280;32233;49.500;7.764;2023-04-09T06:41:19;99207.88;;;11.52;57.94
7433;BME280;32233;49.500;7.764;2023-04-09T06:43:46;99215.56;;;11.68;58.44
7433;BME280;32233;49.500;7.764;2023-04-09T06:46:12;99213.97;;;12.51;55.34
7433;BME280;32233;49.500;7.764;2023-04-09T06:48:42;99214.03;;;13.60;52.08
7433;BME280;32233;49.500;7.764;2023-04-09T06:51:10;99212.53;;;13.38;51.48
7433;BME280;32233;49.500;7.764;2023-04-09T06:53:37;99217.81;;;13.25;53.02
7433;BME280;32233;49.500;7.764;2023-04-09T06:56:04;99209.94;;;13.65;51.79
7433;BME280;32233;49.500;7.764;2023-04-09T06:58:31;99211.41;;;13.94;50.27
7433;BME280;32233;49.500;7.764;2023-04-09T07:00:58;99210.16;;;14.49;48.85
7433;BME280;32233;49.500;7.764;2023-04-09T07:03:25;99200.16;;;15.03;48.48
7433;BME280;32233;49.500;7.764;2023-04-09T07:05:53;99191.09;;;16.30;43.85
7433;BME280;32233;49.500;7.764;2023-04-09T07:08:20;99200.94;;;13.59;50.26
7433;BME280;32233;49.500;7.764;2023-04-09T07:10:48;99199.31;;;14.11;49.07
7433;BME280;32233;49.500;7.764;2023-04-09T07:13:15;99196.72;;;15.72;46.21
7433;BME280;32233;49.500;7.764;2023-04-09T07:15:42;99193.34;;;15.83;44.61
7433;BME280;32233;49.500;7.764;2023-04-09T07:18:08;99202.31;;;14.74;47.51
7433;BME280;32233;49.500;7.764;2023-04-09T07:20:35;99200.25;;;14.83;48.09
7433;BME280;32233;49.500;7.764;2023-04-09T07:23:01;99202.81;;;15.41;46.46
7433;BME280;32233;49.500;7.764;2023-04-09T07:25:28;99194.09;;;16.16;44.68
7433;BME280;32233;49.500;7.764;2023-04-09T07:27:54;99194.09;;;15.66;46.11
7433;BME280;32233;49.500;7.764;2023-04-09T07:30:22;99195.03;;;14.30;48.10
7433;BME280;32233;49.500;7.764;2023-04-09T07:32:48;99197.63;;;15.53;46.20
7433;BME280;32233;49.500;7.764;2023-04-09T07:35:15;99202.16;;;15.52;45.60
7433;BME280;32233;49.500;7.764;2023-04-09T07:37:44;99197.22;;;16.13;43.74
7433;BME280;32233;49.500;7.764;2023-04-09T07:40:10;99193.63;;;16.25;44.16
7433;BME280;32233;49.500;7.764;2023-04-09T07:42:37;99202.16;;;15.84;44.10
7433;BME280;32233;49.500;7.764;2023-04-09T07:45:05;99209.28;;;14.75;46.79
7433;BME280;32233;49.500;7.764;2023-04-09T07:47:32;99207.84;;;15.24;45.67
7433;BME280;32233;49.500;7.764;2023-04-09T07:49:58;99205.09;;;15.76;44.96
7433;BME280;32233;49.500;7.764;2023-04-09T07:52:25;99199.41;;;15.59;46.08
7433;BME280;32233;49.500;7.764;2023-04-09T07:54:51;99196.59;;;17.09;41.89
7433;BME280;32233;49.500;7.764;2023-04-09T07:57:18;99187.84;;;17.02;42.28
7433;BME280;32233;49.500;7.764;2023-04-09T07:59:44;99191.47;;;16.34;46.86
7433;BME280;32233;49.500;7.764;2023-04-09T08:02:12;99190.34;;;17.45;44.52
7433;BME280;32233;49.500;7.764;2023-04-09T08:04:40;99188.41;;;18.06;45.05
7433;BME280;32233;49.500;7.764;2023-04-09T08:07:08;99198.31;;;18.17;41.82
7433;BME280;32233;49.500;7.764;2023-04-09T08:09:34;99199.69;;;16.32;46.82
7433;BME280;32233;49.500;7.764;2023-04-09T08:12:01;99199.22;;;17.57;43.89
7433;BME280;32233;49.500;7.764;2023-04-09T08:14:27;99194.91;;;18.80;45.72
7433;BME280;32233;49.500;7.764;2023-04-09T08:16:54;99193.19;;;17.92;41.21
7433;BME280;32233;49.500;7.764;2023-04-09T08:19:20;99201.78;;;18.06;44.41
7433;BME280;32233;49.500;7.764;2023-04-09T08:21:47;99198.78;;;17.30;45.26
7433;BME280;32233;49.500;7.764;2023-04-09T08:24:14;99195.13;;;17.43;43.43
7433;BME280;32233;49.500;7.764;2023-04-09T08:26:41;99197.81;;;17.85;45.07
7433;BME280;32233;49.500;7.764;2023-04-09T08:29:09;99196.09;;;18.02;44.33
7433;BME280;32233;49.500;7.764;2023-04-09T08:31:36;99203.16;;;16.76;43.79
7433;BME280;32233;49.500;7.764;2023-04-09T08:34:04;99208.41;;;17.01;43.24
7433;BME280;32233;49.500;7.764;2023-04-09T08:36:30;99212.19;;;16.94;43.32
7433;BME280;32233;49.500;7.764;2023-04-09T08:38:57;99210.84;;;16.23;44.35
7433;BME280;32233;49.500;7.764;2023-04-09T08:41:27;99211.69;;;17.33;43.48
7433;BME280;32233;49.500;7.764;2023-04-09T08:43:56;99211.25;;;16.88;42.68
7433;BME280;32233;49.500;7.764;2023-04-09T08:46:25;99211.88;;;17.02;41.91
7433;BME280;32233;49.500;7.764;2023-04-09T08:48:52;99222.16;;;15.61;44.64
7433;BME280;32233;49.500;7.764;2023-04-09T08:51:21;99217.53;;;13.94;48.30
7433;BME280;32233;49.500;7.764;2023-04-09T08:53:53;99208.19;;;16.23;47.80
7433;BME280;32233;49.500;7.764;2023-04-09T08:56:20;99223.22;;;15.60;44.89
7433;BME280;32233;49.500;7.764;2023-04-09T08:58:47;99216.78;;;14.98;48.57
7433;BME280;32233;49.500;7.764;2023-04-09T09:04:00;99204.03;;;17.07;41.39
7433;BME280;32233;49.500;7.764;2023-04-09T09:06:28;99209.44;;;17.00;47.18
7433;BME280;32233;49.500;7.764;2023-04-09T09:11:26;99221.00;;;14.15;49.20
7433;BME280;32233;49.500;7.764;2023-04-09T09:14:01;99212.59;;;13.65;51.80
7433;BME280;32233;49.500;7.764;2023-04-09T09:16:28;99222.66;;;12.73;49.37
7433;BME280;32233;49.500;7.764;2023-04-09T09:18:54;99204.44;;;12.98;50.46
7433;BME280;32233;49.500;7.764;2023-04-09T09:21:24;99217.31;;;13.08;51.56
7433;BME280;32233;49.500;7.764;2023-04-09T09:23:52;99211.69;;;13.24;48.80
7433;BME280;32233;49.500;7.764;2023-04-09T09:26:21;99214.47;;;12.68;46.54
7433;BME280;32233;49.500;7.764;2023-04-09T09:28:50;99213.03;;;13.07;47.25
7433;BME280;32233;49.500;7.764;2023-04-09T09:31:19;99210.94;;;13.44;46.46
7433;BME280;32233;49.500;7.764;2023-04-09T09:33:47;99203.75;;;12.83;50.40
7433;BME280;32233;49.500;7.764;2023-04-09T09:36:14;99205.47;;;12.62;48.96
7433;BME280;32233;49.500;7.764;2023-04-09T09:38:55;99197.25;;;13.40;48.28
7433;BME280;32233;49.500;7.764;2023-04-09T09:41:23;99199.94;;;12.99;48.67
7433;BME280;32233;49.500;7.764;2023-04-09T09:43:50;99205.19;;;13.27;50.17
7433;BME280;32233;49.500;7.764;2023-04-09T09:46:17;99196.84;;;13.63;51.78
7433;BME280;32233;49.500;7.764;2023-04-09T09:48:46;99201.13;;;13.51;46.42
7433;BME280;32233;49.500;7.764;2023-04-09T09:51:13;99199.31;;;13.71;45.31
7433;BME280;32233;49.500;7.764;2023-04-09T09:53:42;99188.44;;;12.44;47.38
7433;BME280;32233;49.500;7.764;2023-04-09T09:56:21;99190.56;;;12.27;47.60
7433;BME280;32233;49.500;7.764;2023-04-09T09:58:52;99184.53;;;12.39;48.39
7433;BME280;32233;49.500;7.764;2023-04-09T10:01:20;99190.13;;;12.51;47.07
7433;BME280;32233;49.500;7.764;2023-04-09T10:03:50;99184.69;;;12.66;46.58
7433;BME280;32233;49.500;7.764;2023-04-09T10:06:18;99182.09;;;12.79;45.23
7433;BME280;32233;49.500;7.764;2023-04-09T10:08:46;99175.50;;;12.62;46.28
7433;BME280;32233;49.500;7.764;2023-04-09T10:11:14;99180.91;;;12.82;47.47
7433;BME280;32233;49.500;7.764;2023-04-09T10:13:55;99182.47;;;12.76;46.32
7433;BME280;32233;49.500;7.764;2023-04-09T10:16:24;99173.50;;;12.77;46.82
7433;BME280;32233;49.500;7.764;2023-04-09T10:18:52;99171.13;;;12.96;44.88
7433;BME280;32233;49.500;7.764;2023-04-09T10:21:42;99165.66;;;13.04;44.37
7433;BME280;32233;49.500;7.764;2023-04-09T10:24:10;99169.50;;;13.01;46.78
7433;BME280;32233;49.500;7.764;2023-04-09T10:26:40;99164.97;;;13.43;45.82
7433;BME280;32233;49.500;7.764;2023-04-09T10:29:10;99165.59;;;13.78;43.94
7433;BME280;32233;49.500;7.764;2023-04-09T10:32:08;99169.06;;;14.25;42.26
7433;BME280;32233;49.500;7.764;2023-04-09T10:34:37;99166.72;;;13.16;43.27
7433;BME280;32233;49.500;7.764;2023-04-09T10:37:10;99165.16;;;13.42;44.91
7433;BME280;32233;49.500;7.764;2023-04-09T10:39:40;99162.91;;;13.38;44.89
7433;BME280;32233;49.500;7.764;2023-04-09T10:42:14;99166.38;;;14.19;43.18
7433;BME280;32233;49.500;7.764;2023-04-09T10:44:43;99159.69;;;14.81;43.88
7433;BME280;32233;49.500;7.764;2023-04-09T10:47:10;99164.09;;;14.35;44.17
7433;BME280;32233;49.500;7.764;2023-04-09T10:49:41;99156.38;;;13.87;45.36
7433;BME280;32233;49.500;7.764;2023-04-09T10:52:09;99166.06;;;13.14;45.03
7433;BME280;32233;49.500;7.764;2023-04-09T10:54:49;99167.09;;;13.06;44.11
7433;BME280;32233;49.500;7.764;2023-04-09T10:57:20;99164.75;;;14.18;43.20
7433;BME280;32233;49.500;7.764;2023-04-09T10:59:49;99162.13;;;14.04;41.69
7433;BME280;32233;49.500;7.764;2023-04-09T11:07:48;99162.28;;;14.23;42.09
7433;BME280;32233;49.500;7.764;2023-04-09T11:10:19;99154.94;;;14.11;42.88
7433;BME280;32233;49.500;7.764;2023-04-09T11:12:47;99150.63;;;14.30;44.07
7433;BME280;32233;49.500;7.764;2023-04-09T11:15:18;99149.63;;;14.25;44.20
7433;BME280;32233;49.500;7.764;2023-04-09T11:17:46;99156.75;;;14.37;43.37
7433;BME280;32233;49.500;7.764;2023-04-09T11:20:15;99163.75;;;13.52;46.04
7433;BME280;32233;49.500;7.764;2023-04-09T11:22:41;99162.94;;;13.58;45.86
7433;BME280;32233;49.500;7.764;2023-04-09T11:25:08;99156.75;;;13.25;45.81
7433;BME280;32233;49.500;7.764;2023-04-09T11:27:38;99151.09;;;13.61;44.59
7433;BME280;32233;49.500;7.764;2023-04-09T11:30:05;99156.38;;;13.54;42.84
7433;BME280;32233;49.500;7.764;2023-04-09T11:32:32;99155.78;;;13.52;41.83
7433;BME280;32233;49.500;7.764;2023-04-09T11:34:59;99154.97;;;13.98;39.90
7433;BME280;32233;49.500;7.764;2023-04-09T11:37:26;99156.13;;;15.00;38.46
7433;BME280;32233;49.500;7.764;2023-04-09T11:39:53;99155.28;;;14.55;38.65
7433;BME280;32233;49.500;7.764;2023-04-09T11:42:23;99159.66;;;14.09;39.85
7433;BME280;32233;49.500;7.764;2023-04-09T11:44:51;99154.56;;;14.01;40.24
7433;BME280;32233;49.500;7.764;2023-04-09T11:47:18;99159.06;;;13.74;41.98
7433;BME280;32233;49.500;7.764;2023-04-09T11:49:46;99157.13;;;13.15;42.67
7433;BME280;32233;49.500;7.764;2023-04-09T11:52:13;99151.88;;;13.55;43.51
7433;BME280;32233;49.500;7.764;2023-04-09T11:54:47;99148.03;;;13.84;41.36
7433;BME280;32233;49.500;7.764;2023-04-09T11:57:14;99148.00;;;13.44;42.26
7433;BME280;32233;49.500;7.764;2023-04-09T11:59:41;99144.88;;;13.21;43.36
7433;BME280;32233;49.500;7.764;2023-04-09T12:02:07;99141.00;;;14.49;40.76
7433;BME280;32233;49.500;7.764;2023-04-09T12:04:34;99152.88;;;14.33;40.91
7433;BME280;32233;49.500;7.764;2023-04-09T12:07:01;99156.50;;;14.66;38.56
7433;BME280;32233;49.500;7.764;2023-04-09T12:09:45;99148.31;;;14.60;39.55
7433;BME280;32233;49.500;7.764;2023-04-09T12:12:17;99137.03;;;16.78;35.06
7433;BME280;32233;49.500;7.764;2023-04-09T12:14:45;99134.09;;;15.81;35.27
7433;BME280;32233;49.500;7.764;2023-04-09T12:17:12;99132.88;;;17.13;35.08
7433;BME280;32233;49.500;7.764;2023-04-09T12:19:38;99139.38;;;14.93;37.28
7433;BME280;32233;49.500;7.764;2023-04-09T12:22:05;99143.72;;;14.09;39.88
7433;BME280;32233;49.500;7.764;2023-04-09T12:24:32;99145.34;;;14.10;40.10
7433;BME280;32233;49.500;7.764;2023-04-09T12:26:58;99141.03;;;14.23;40.62
7433;BME280;32233;49.500;7.764;2023-04-09T12:29:25;99149.66;;;13.78;42.75
7433;BME280;32233;49.500;7.764;2023-04-09T12:31:52;99145.00;;;14.72;41.18
7433;BME280;32233;49.500;7.764;2023-04-09T12:34:19;99127.06;;;16.67;38.41
7433;BME280;32233;49.500;7.764;2023-04-09T12:36:45;99129.66;;;17.99;36.26
7433;BME280;32233;49.500;7.764;2023-04-09T12:39:12;99126.06;;;19.55;35.71
7433;BME280;32233;49.500;7.764;2023-04-09T12:41:38;99128.25;;;16.53;37.14
7433;BME280;32233;49.500;7.764;2023-04-09T12:44:05;99141.13;;;15.13;39.60
7433;BME280;32233;49.500;7.764;2023-04-09T12:46:32;99134.53;;;16.95;35.81
7433;BME280;32233;49.500;7.764;2023-04-09T12:48:59;99120.06;;;17.03;37.15
7433;BME280;32233;49.500;7.764;2023-04-09T12:51:26;99121.06;;;16.35;37.07
7433;BME280;32233;49.500;7.764;2023-04-09T12:53:53;99131.56;;;15.61;38.34
7433;BME280;32233;49.500;7.764;2023-04-09T12:56:20;99123.63;;;17.80;34.70
7433;BME280;32233;49.500;7.764;2023-04-09T12:58:47;99116.47;;;19.42;30.20
7433;BME280;32233;49.500;7.764;2023-04-09T13:01:13;99120.94;;;18.04;32.02
7433;BME280;32233;49.500;7.764;2023-04-09T13:03:40;99116.28;;;17.99;31.83
7433;BME280;32233;49.500;7.764;2023-04-09T13:06:07;99106.19;;;17.78;33.11
7433;BME280;32233;49.500;7.764;2023-04-09T13:08:34;99109.88;;;16.26;37.68
7433;BME280;32233;49.500;7.764;2023-04-09T13:11:00;99115.06;;;16.40;36.94
7433;BME280;32233;49.500;7.764;2023-04-09T13:13:27;99116.00;;;17.54;34.06
7433;BME280;32233;49.500;7.764;2023-04-09T13:15:53;99110.13;;;17.64;35.30
7433;BME280;32233;49.500;7.764;2023-04-09T13:18:20;99109.56;;;18.09;33.38
7433;BME280;32233;49.500;7.764;2023-04-09T13:20:47;99111.47;;;18.48;32.25
7433;BME280;32233;49.500;7.764;2023-04-09T13:23:13;99107.78;;;18.38;31.73
7433;BME280;32233;49.500;7.764;2023-04-09T13:25:40;99109.25;;;16.24;36.57
7433;BME280;32233;49.500;7.764;2023-04-09T13:28:06;99103.69;;;16.07;35.94
7433;BME280;32233;49.500;7.764;2023-04-09T13:30:33;99108.22;;;15.32;37.69
7433;BME280;32233;49.500;7.764;2023-04-09T13:32:59;99105.13;;;16.28;36.29
7433;BME280;32233;49.500;7.764;2023-04-09T13:35:26;99096.16;;;16.04;39.03
7433;BME280;32233;49.500;7.764;2023-04-09T13:37:53;99095.47;;;15.09;38.27
7433;BME280;32233;49.500;7.764;2023-04-09T13:40:19;99083.44;;;15.56;42.26